createdAt,value
2023-03-29T00:03:21.438Z,95626.00
2023-03-29T00:07:21.526Z,95640.00
2023-03-29T00:11:21.645Z,95671.00
2023-03-29T00:15:21.721Z,95673.00
2023-03-29T00:19:21.884Z,95669.00
2023-03-29T00:23:21.980Z,95665.00
2023-03-29T00:27:22.144Z,95677.00
2023-03-29T00:31:22.357Z,95691.00
2023-03-29T00:35:22.456Z,95689.00
2023-03-29T00:39:22.579Z,95698.00
2023-03-29T00:43:22.696Z,95708.00
2023-03-29T00:47:22.837Z,95702.00
2023-03-29T00:51:22.977Z,95706.00
2023-03-29T00:55:23.111Z,95702.00
2023-03-29T00:59:23.283Z,95708.00
2023-03-29T01:03:23.520Z,95724.00
2023-03-29T01:07:23.587Z,95726.00
2023-03-29T01:11:23.741Z,95716.00
2023-03-29T01:15:23.878Z,95718.00
2023-03-29T01:19:24.026Z,95712.00
2023-03-29T01:23:24.145Z,95696.00
2023-03-29T01:27:24.856Z,95708.00
2023-03-29T01:31:24.466Z,95702.00
2023-03-29T01:35:24.627Z,95702.00
2023-03-29T01:39:24.774Z,95706.00
2023-03-29T01:43:24.980Z,95702.00
2023-03-29T01:47:25.163Z,95687.00
2023-03-29T01:51:25.380Z,95689.00
2023-03-29T01:55:25.468Z,95687.00
2023-03-29T01:59:25.633Z,95687.00
2023-03-29T02:03:25.863Z,95683.00
2023-03-29T02:07:25.946Z,95677.00
2023-03-29T02:11:26.096Z,95673.00
2023-03-29T02:15:26.300Z,95673.00
2023-03-29T02:19:26.439Z,95663.00
2023-03-29T02:23:26.572Z,95651.00
2023-03-29T02:27:26.770Z,95647.00
2023-03-29T02:31:26.962Z,95651.00
2023-03-29T02:35:27.085Z,95649.00
2023-03-29T02:39:27.255Z,95665.00
2023-03-29T02:43:27.434Z,95663.00
2023-03-29T02:47:27.557Z,95649.00
2023-03-29T02:51:27.732Z,95647.00
2023-03-29T02:55:27.871Z,95630.00
2023-03-29T02:59:28.063Z,95626.00
2023-03-29T03:03:28.265Z,95626.00
2023-03-29T03:07:28.403Z,95630.00
2023-03-29T03:11:28.561Z,95626.00
2023-03-29T03:15:28.767Z,95622.00
2023-03-29T03:19:28.920Z,95624.00
2023-03-29T03:23:29.109Z,95632.00
2023-03-29T03:27:29.315Z,95634.00
2023-03-29T03:31:29.572Z,95647.00
2023-03-29T03:35:29.739Z,95653.00
2023-03-29T03:39:29.907Z,95663.00
2023-03-29T03:43:30.140Z,95677.00
2023-03-29T03:47:30.286Z,95671.00
2023-03-29T03:51:30.451Z,95665.00
2023-03-29T03:55:30.669Z,95651.00
2023-03-29T03:59:30.862Z,95640.00
2023-03-29T04:03:31.070Z,95643.00
2023-03-29T04:07:31.254Z,95640.00
2023-03-29T04:11:31.466Z,95638.00
2023-03-29T04:15:31.706Z,95624.00
2023-03-29T04:19:31.893Z,95606.00
2023-03-29T04:23:32.068Z,95598.00
2023-03-29T04:27:32.292Z,95600.00
2023-03-29T04:31:32.502Z,95606.00
2023-03-29T04:35:32.736Z,95596.00
2023-03-29T04:39:32.909Z,95585.00
2023-03-29T04:43:33.059Z,95583.00
2023-03-29T04:47:33.110Z,95573.00
2023-03-29T04:51:33.056Z,95575.00
2023-03-29T04:55:33.019Z,95575.00
2023-03-29T04:59:32.945Z,95571.00
2023-03-29T05:03:32.888Z,95575.00
2023-03-29T05:07:32.858Z,95571.00
2023-03-29T05:11:32.799Z,95565.00
2023-03-29T05:15:32.810Z,95561.00
2023-03-29T05:19:32.767Z,95555.00
2023-03-29T05:23:32.725Z,95553.00
2023-03-29T05:27:32.672Z,95547.00
2023-03-29T05:31:32.852Z,95553.00
2023-03-29T05:35:32.913Z,95557.00
2023-03-29T05:39:34.543Z,95555.00
2023-03-29T05:43:33.487Z,95561.00
2023-03-29T05:47:33.009Z,95557.00
2023-03-29T05:51:32.975Z,95563.00
2023-03-29T05:55:32.964Z,95559.00
2023-03-29T05:59:32.892Z,95575.00
2023-03-29T06:03:32.924Z,95567.00
2023-03-29T06:07:32.949Z,95575.00
2023-03-29T06:11:32.776Z,95575.00
2023-03-29T06:15:32.725Z,95590.00
2023-03-29T06:19:32.689Z,95588.00
2023-03-29T06:23:32.634Z,95586.00
2023-03-29T06:27:32.951Z,95586.00
2023-03-29T06:31:32.779Z,95588.00
2023-03-29T06:35:32.764Z,95596.00
2023-03-29T06:39:32.809Z,95598.00
2023-03-29T06:43:33.419Z,95604.00
2023-03-29T06:47:33.497Z,95608.00
2023-03-29T06:51:33.285Z,95622.00
2023-03-29T06:55:33.467Z,95622.00
2023-03-29T06:59:33.971Z,95628.00
2023-03-29T07:03:33.962Z,95620.00
2023-03-29T07:07:33.849Z,95612.00
2023-03-29T07:11:33.961Z,95610.00
2023-03-29T07:15:34.532Z,95622.00
2023-03-29T07:19:34.042Z,95618.00
2023-03-29T07:23:34.488Z,95620.00
2023-03-29T07:27:34.099Z,95612.00
2023-03-29T07:31:34.497Z,95616.00
2023-03-29T07:35:34.514Z,95622.00
2023-03-29T07:39:34.491Z,95624.00
2023-03-29T07:43:34.222Z,95614.00
2023-03-29T07:47:34.478Z,95618.00
2023-03-29T07:51:34.488Z,95610.00
2023-03-29T07:55:34.384Z,95614.00
2023-03-29T07:59:34.495Z,95618.00
2023-03-29T08:03:34.495Z,95618.00
2023-03-29T08:07:34.584Z,95612.00
2023-03-29T08:11:34.748Z,95612.00
2023-03-29T08:15:35.004Z,95614.00
2023-03-29T08:19:34.987Z,95624.00
2023-03-29T08:23:35.152Z,95626.00
2023-03-29T08:27:35.269Z,95624.00
2023-03-29T08:31:35.556Z,95620.00
2023-03-29T08:35:35.608Z,95628.00
2023-03-29T08:39:36.040Z,95638.00
2023-03-29T08:43:35.901Z,95641.00
2023-03-29T08:47:36.095Z,95653.00
2023-03-29T08:51:36.493Z,95643.00
2023-03-29T08:55:36.398Z,95645.00
2023-03-29T08:59:36.579Z,95647.00
2023-03-29T09:03:36.797Z,95647.00
2023-03-29T09:07:37.033Z,95645.00
2023-03-29T09:11:37.125Z,95649.00
2023-03-29T09:15:37.365Z,95643.00
2023-03-29T09:19:37.529Z,95641.00
2023-03-29T09:23:37.739Z,95641.00
2023-03-29T09:27:37.956Z,95643.00
2023-03-29T09:31:38.189Z,95641.00
2023-03-29T09:35:38.446Z,95643.00
2023-03-29T09:39:39.017Z,95645.00
2023-03-29T09:43:39.040Z,95640.00
2023-03-29T09:47:38.882Z,95632.00
2023-03-29T09:51:39.032Z,95630.00
2023-03-29T09:55:39.166Z,95624.00
2023-03-29T09:59:39.346Z,95626.00
2023-03-29T10:03:39.502Z,95618.00
2023-03-29T10:07:39.678Z,95612.00
2023-03-29T10:11:40.084Z,95602.00
2023-03-29T10:15:40.022Z,95596.00
2023-03-29T10:19:40.181Z,95594.00
2023-03-29T10:23:40.324Z,95590.00
2023-03-29T10:27:40.485Z,95594.00
2023-03-29T10:31:40.697Z,95592.00
2023-03-29T10:35:41.051Z,95598.00
2023-03-29T10:39:41.121Z,95596.00
2023-03-29T10:43:41.040Z,95596.00
2023-03-29T10:47:41.169Z,95592.00
2023-03-29T10:51:41.537Z,95594.00
2023-03-29T10:55:41.139Z,95596.00
2023-03-29T10:59:41.581Z,95596.00
2023-03-29T11:03:41.278Z,95592.00
2023-03-29T11:07:41.090Z,95596.00
2023-03-29T11:11:41.093Z,95596.00
2023-03-29T11:15:41.145Z,95586.00
2023-03-29T11:19:41.116Z,95581.00
2023-03-29T11:23:41.298Z,95575.00
2023-03-29T11:27:41.244Z,95573.00
2023-03-29T11:31:41.598Z,95573.00
2023-03-29T11:35:41.211Z,95563.00
2023-03-29T11:39:41.124Z,95563.00
2023-03-29T11:43:41.083Z,95561.00
2023-03-29T11:47:41.106Z,95561.00
2023-03-29T11:51:41.006Z,95555.00
2023-03-29T11:55:41.014Z,95553.00
2023-03-29T11:59:40.945Z,95539.00
2023-03-29T12:03:41.064Z,95530.00
2023-03-29T12:07:40.907Z,95526.00
2023-03-29T12:11:40.816Z,95514.00
2023-03-29T12:15:40.768Z,95516.00
2023-03-29T12:19:43.528Z,95508.00
2023-03-29T12:23:40.703Z,95500.00
2023-03-29T12:27:40.675Z,95500.00
2023-03-29T12:31:40.674Z,95489.00
2023-03-29T12:35:40.635Z,95487.00
2023-03-29T12:39:40.570Z,95483.00
2023-03-29T12:43:40.572Z,95481.00
2023-03-29T12:47:40.556Z,95479.00
2023-03-29T12:51:40.453Z,95479.00
2023-03-29T12:55:40.412Z,95473.00
2023-03-29T12:59:40.385Z,95475.00
2023-03-29T13:03:40.351Z,95461.00
2023-03-29T13:07:40.313Z,95455.00
2023-03-29T13:11:40.296Z,95453.00
2023-03-29T13:15:40.254Z,95451.00
2023-03-29T13:19:40.232Z,95461.00
2023-03-29T13:23:40.186Z,95459.00
2023-03-29T13:27:40.121Z,95465.00
2023-03-29T13:31:40.237Z,95463.00
2023-03-29T13:35:40.144Z,95473.00
2023-03-29T13:39:40.053Z,95477.00
2023-03-29T13:43:40.026Z,95473.00
2023-03-29T13:47:40.236Z,95481.00
2023-03-29T13:51:39.935Z,95475.00
2023-03-29T13:55:39.899Z,95465.00
2023-03-29T13:59:39.821Z,95459.00
2023-03-29T14:03:39.840Z,95457.00
2023-03-29T14:07:39.758Z,95453.00
2023-03-29T14:11:39.716Z,95463.00
2023-03-29T14:15:39.675Z,95459.00
2023-03-29T14:19:39.666Z,95461.00
2023-03-29T14:23:39.599Z,95463.00
2023-03-29T14:27:39.593Z,95453.00
2023-03-29T14:31:39.641Z,95449.00
2023-03-29T14:35:39.523Z,95457.00
2023-03-29T14:39:39.467Z,95459.00
2023-03-29T14:43:39.421Z,95463.00
2023-03-29T14:47:39.397Z,95461.00
2023-03-29T14:51:39.387Z,95457.00
2023-03-29T14:55:39.306Z,95459.00
2023-03-29T14:59:39.278Z,95457.00
2023-03-29T15:03:39.349Z,95463.00
2023-03-29T15:07:39.205Z,95465.00
2023-03-29T15:11:39.198Z,95465.00
2023-03-29T15:15:39.292Z,95457.00
2023-03-29T15:19:39.226Z,95449.00
2023-03-29T15:23:39.312Z,95442.00
2023-03-29T15:27:39.349Z,95430.00
2023-03-29T15:31:39.581Z,95422.00
2023-03-29T15:35:39.505Z,95422.00
2023-03-29T15:39:39.555Z,95420.00
2023-03-29T15:43:39.600Z,95416.00
2023-03-29T15:47:39.718Z,95424.00
2023-03-29T15:51:39.731Z,95410.00
2023-03-29T15:55:39.797Z,95408.00
2023-03-29T15:59:39.902Z,95398.00
2023-03-29T16:03:39.963Z,95396.00
2023-03-29T16:07:40.056Z,95396.00
2023-03-29T16:11:40.150Z,95398.00
2023-03-29T16:15:40.279Z,95408.00
2023-03-29T16:19:40.379Z,95394.00
2023-03-29T16:23:40.516Z,95396.00
2023-03-29T16:27:40.665Z,95406.00
2023-03-29T16:31:40.859Z,95396.00
2023-03-29T16:35:41.051Z,95394.00
2023-03-29T16:39:41.126Z,95394.00
2023-03-29T16:43:41.231Z,95391.00
2023-03-29T16:47:41.381Z,95389.00
2023-03-29T16:51:41.520Z,95391.00
2023-03-29T16:55:41.677Z,95391.00
2023-03-29T16:59:41.835Z,95387.00
2023-03-29T17:03:41.977Z,95381.00
2023-03-29T17:07:42.131Z,95377.00
2023-03-29T17:11:42.424Z,95385.00
2023-03-29T17:15:42.489Z,95391.00
2023-03-29T17:19:42.653Z,95387.00
2023-03-29T17:23:42.836Z,95385.00
2023-03-29T17:27:43.054Z,95389.00
2023-03-29T17:31:43.269Z,95391.00
2023-03-29T17:35:43.420Z,95391.00
2023-03-29T17:39:43.612Z,95398.00
2023-03-29T17:43:43.829Z,95408.00
2023-03-29T17:47:44.101Z,95398.00
2023-03-29T17:51:44.262Z,95408.00
2023-03-29T17:55:44.584Z,95420.00
2023-03-29T17:59:44.656Z,95418.00
2023-03-29T18:03:44.870Z,95420.00
2023-03-29T18:07:45.057Z,95432.00
2023-03-29T18:11:45.286Z,95424.00
2023-03-29T18:15:45.253Z,95430.00
2023-03-29T18:19:45.249Z,95426.00
2023-03-29T18:23:45.174Z,95420.00
2023-03-29T18:27:45.129Z,95420.00
2023-03-29T18:31:45.161Z,95420.00
2023-03-29T18:35:45.097Z,95426.00
2023-03-29T18:39:45.018Z,95432.00
2023-03-29T18:43:44.966Z,95430.00
2023-03-29T18:47:45.025Z,95432.00
2023-03-29T18:51:44.914Z,95440.00
2023-03-29T18:55:44.880Z,95451.00
2023-03-29T18:59:44.817Z,95459.00
2023-03-29T19:03:45.052Z,95457.00
2023-03-29T19:07:44.756Z,95461.00
2023-03-29T19:11:44.723Z,95465.00
2023-03-29T19:15:44.712Z,95471.00
2023-03-29T19:19:44.648Z,95465.00
2023-03-29T19:23:44.635Z,95477.00
2023-03-29T19:27:44.585Z,95469.00
2023-03-29T19:31:44.741Z,95477.00
2023-03-29T19:35:44.666Z,95473.00
2023-03-29T19:39:44.591Z,95471.00
2023-03-29T19:43:44.614Z,95481.00
2023-03-29T19:47:44.561Z,95489.00
2023-03-29T19:51:44.482Z,95496.00
2023-03-29T19:55:44.479Z,95498.00
2023-03-29T19:59:44.398Z,95496.00
2023-03-29T20:03:44.409Z,95502.00
2023-03-29T20:07:44.338Z,95510.00
2023-03-29T20:11:44.370Z,95510.00
2023-03-29T20:15:44.566Z,95506.00
2023-03-29T20:19:44.790Z,95502.00
2023-03-29T20:23:44.967Z,95506.00
2023-03-29T20:27:45.122Z,95498.00
2023-03-29T20:31:45.427Z,95496.00
2023-03-29T20:35:45.632Z,95492.00
2023-03-29T20:39:45.550Z,95491.00
2023-03-29T20:43:45.527Z,95489.00
2023-03-29T20:47:45.503Z,95479.00
2023-03-29T20:51:45.438Z,95481.00
2023-03-29T20:55:45.370Z,95471.00
2023-03-29T20:59:45.360Z,95473.00
2023-03-29T21:03:45.402Z,95457.00
2023-03-29T21:07:45.263Z,95453.00
2023-03-29T21:11:45.223Z,95445.00
2023-03-29T21:15:45.247Z,95442.00
2023-03-29T21:19:45.139Z,95442.00
2023-03-29T21:23:45.129Z,95444.00
2023-03-29T21:27:45.191Z,95444.00
2023-03-29T21:31:45.308Z,95438.00
2023-03-29T21:35:45.372Z,95434.00
2023-03-29T21:39:45.469Z,95432.00
2023-03-29T21:43:45.633Z,95432.00
2023-03-29T21:47:45.867Z,95432.00
2023-03-29T21:51:45.924Z,95424.00
2023-03-29T21:55:46.010Z,95430.00
2023-03-29T21:59:45.969Z,95426.00
2023-03-29T22:03:46.052Z,95432.00
2023-03-29T22:07:46.095Z,95434.00
2023-03-29T22:11:46.111Z,95436.00
2023-03-29T22:15:46.136Z,95434.00
2023-03-29T22:19:46.185Z,95436.00
2023-03-29T22:23:46.194Z,95440.00
2023-03-29T22:27:46.250Z,95434.00
2023-03-29T22:31:46.225Z,95440.00
2023-03-29T22:35:46.189Z,95438.00
2023-03-29T22:39:46.200Z,95440.00
2023-03-29T22:43:46.151Z,95426.00
2023-03-29T22:47:46.137Z,95412.00
2023-03-29T22:51:46.110Z,95422.00
2023-03-29T22:55:46.104Z,95420.00
2023-03-29T22:59:46.066Z,95418.00
2023-03-29T23:03:46.046Z,95416.00
2023-03-29T23:07:46.018Z,95412.00
2023-03-29T23:11:46.072Z,95414.00
2023-03-29T23:15:46.065Z,95416.00
2023-03-29T23:19:45.999Z,95408.00
2023-03-29T23:23:45.992Z,95408.00
2023-03-29T23:27:45.951Z,95406.00
2023-03-29T23:31:45.936Z,95394.00
2023-03-29T23:35:45.972Z,95392.00
2023-03-29T23:39:45.907Z,95392.00
2023-03-29T23:43:45.853Z,95385.00
2023-03-29T23:47:45.880Z,95375.00
2023-03-29T23:51:45.850Z,95367.00
2023-03-29T23:55:45.808Z,95363.00
2023-03-29T23:59:45.782Z,95357.00
